createdAt,value
2023-04-18T00:01:52.274Z,17.13
2023-04-18T00:05:53.752Z,18.63
2023-04-18T00:09:55.132Z,18.80
2023-04-18T00:13:59.675Z,20.42
2023-04-18T00:18:03.640Z,19.52
2023-04-18T00:22:07.113Z,27.52
2023-04-18T00:26:09.207Z,24.70
2023-04-18T00:30:11.007Z,21.33
2023-04-18T00:34:12.588Z,21.63
2023-04-18T00:38:14.174Z,21.25
2023-04-18T00:42:15.657Z,20.27
2023-04-18T00:46:17.045Z,19.45
2023-04-18T00:50:19.867Z,23.45
2023-04-18T00:54:21.937Z,21.42
2023-04-18T00:58:24.550Z,18.63
2023-04-18T01:02:27.274Z,20.48
2023-04-18T01:06:29.451Z,20.25
2023-04-18T01:10:31.214Z,19.15
2023-04-18T01:14:32.722Z,17.95
2023-04-18T01:18:34.998Z,20.13
2023-04-18T01:22:36.517Z,19.40
2023-04-18T01:26:38.434Z,23.77
2023-04-18T01:30:40.560Z,18.70
2023-04-18T01:34:42.012Z,18.42
2023-04-18T01:38:43.436Z,17.67
2023-04-18T01:42:44.930Z,19.95
2023-04-18T01:46:46.457Z,25.10
2023-04-18T01:50:48.029Z,20.00
2023-04-18T01:54:49.457Z,18.98
2023-04-18T01:58:50.888Z,18.38
2023-04-18T02:02:52.540Z,17.85
2023-04-18T02:06:54.099Z,19.25
2023-04-18T02:10:55.505Z,18.35
2023-04-18T02:14:56.940Z,18.13
2023-04-18T02:18:58.416Z,17.63
2023-04-18T02:23:00.737Z,20.58
2023-04-18T02:27:02.235Z,20.83
2023-04-18T02:31:03.682Z,18.08
2023-04-18T02:35:05.493Z,18.98
2023-04-18T02:39:07.136Z,18.02
2023-04-18T02:43:08.545Z,19.88
2023-04-18T02:47:10.073Z,19.67
2023-04-18T02:51:11.680Z,18.92
2023-04-18T02:55:13.265Z,26.33
2023-04-18T02:59:14.665Z,18.00
2023-04-18T03:03:16.903Z,19.35
2023-04-18T03:07:18.384Z,17.02
2023-04-18T03:11:19.874Z,19.40
2023-04-18T03:15:21.450Z,17.85
2023-04-18T03:19:22.860Z,20.85
2023-04-18T03:23:24.367Z,16.77
2023-04-18T03:27:25.861Z,17.05
2023-04-18T03:31:27.313Z,20.85
2023-04-18T03:35:28.746Z,24.13
2023-04-18T03:39:30.268Z,19.88
2023-04-18T03:43:31.695Z,16.73
2023-04-18T03:47:33.555Z,18.65
2023-04-18T03:51:43.500Z,18.92
2023-04-18T03:59:47.916Z,18.88
2023-04-18T04:03:49.692Z,16.80
2023-04-18T04:07:51.313Z,19.85
2023-04-18T04:11:52.739Z,17.08
2023-04-18T04:15:54.485Z,15.50
2023-04-18T04:19:56.044Z,16.70
2023-04-18T04:23:57.704Z,16.10
2023-04-18T04:28:01.388Z,16.48
2023-04-18T04:32:05.635Z,21.52
2023-04-18T04:36:09.035Z,18.75
2023-04-18T04:40:10.824Z,18.48
2023-04-18T04:44:12.574Z,22.40
2023-04-18T04:48:14.379Z,18.70
2023-04-18T04:52:16.019Z,20.20
2023-04-18T04:56:17.665Z,19.35
2023-04-18T05:00:20.956Z,21.30
2023-04-18T05:04:22.847Z,20.92
2023-04-18T05:08:24.537Z,18.02
2023-04-18T05:12:26.729Z,27.25
2023-04-18T05:16:28.369Z,21.77
2023-04-18T05:20:29.810Z,19.30
2023-04-18T05:24:32.498Z,17.85
2023-04-18T05:28:34.234Z,19.23
2023-04-18T05:32:35.824Z,16.42
2023-04-18T05:36:37.432Z,18.08
2023-04-18T05:40:38.869Z,17.45
2023-04-18T05:44:40.406Z,17.70
2023-04-18T05:48:41.835Z,18.90
2023-04-18T05:52:43.345Z,21.23
2023-04-18T05:56:44.888Z,15.75
2023-04-18T06:00:47.957Z,17.48
2023-04-18T06:04:49.881Z,23.15
2023-04-18T06:08:51.495Z,19.05
2023-04-18T06:12:52.991Z,21.52
2023-04-18T06:16:54.529Z,21.00
2023-04-18T06:20:56.045Z,16.15
2023-04-18T06:24:59.271Z,22.67
2023-04-18T06:29:01.115Z,17.80
2023-04-18T06:33:03.324Z,16.00
2023-04-18T06:37:05.773Z,15.88
2023-04-18T06:41:07.228Z,18.35
2023-04-18T06:45:11.860Z,17.13
2023-04-18T06:49:14.453Z,17.98
2023-04-18T06:53:15.963Z,18.23
2023-04-18T06:57:17.514Z,17.80
2023-04-18T07:01:19.550Z,19.70
2023-04-18T07:05:21.370Z,14.40
2023-04-18T07:09:23.002Z,14.10
2023-04-18T07:13:24.490Z,18.23
2023-04-18T07:17:26.103Z,15.05
2023-04-18T07:21:27.965Z,15.73
2023-04-18T07:25:29.566Z,15.48
2023-04-18T07:29:31.269Z,13.07
2023-04-18T07:33:33.765Z,15.50
2023-04-18T07:37:35.370Z,14.30
2023-04-18T07:41:36.863Z,15.20
2023-04-18T07:45:38.440Z,13.20
2023-04-18T07:49:40.005Z,15.40
2023-04-18T07:53:41.784Z,14.73
2023-04-18T07:57:45.257Z,15.25
2023-04-18T08:01:47.965Z,13.27
2023-04-18T08:05:50.348Z,15.10
2023-04-18T08:09:51.816Z,15.02
2023-04-18T08:13:53.599Z,15.88
2023-04-18T08:17:56.084Z,15.73
2023-04-18T08:22:11.072Z,16.40
2023-04-18T08:26:12.615Z,14.20
2023-04-18T08:30:14.749Z,14.55
2023-04-18T08:34:16.285Z,15.65
2023-04-18T08:38:18.898Z,16.20
2023-04-18T08:42:23.167Z,16.00
2023-04-18T08:46:26.381Z,14.30
2023-04-18T08:50:28.028Z,16.42
2023-04-18T08:54:30.520Z,18.75
2023-04-18T08:58:33.716Z,17.98
2023-04-18T09:02:43.610Z,14.35
2023-04-18T09:06:54.318Z,14.80
2023-04-18T09:10:56.155Z,16.52
2023-04-18T09:15:11.124Z,19.17
2023-04-18T09:19:17.888Z,20.95
2023-04-18T09:23:24.415Z,15.90
2023-04-18T09:27:26.023Z,16.23
2023-04-18T09:31:27.760Z,17.20
2023-04-18T09:35:29.522Z,14.27
2023-04-18T09:39:30.968Z,14.68
2023-04-18T09:43:32.484Z,16.77
2023-04-18T09:47:35.292Z,18.77
2023-04-18T09:51:40.498Z,15.88
2023-04-18T09:55:42.683Z,19.88
2023-04-18T09:59:54.614Z,17.83
2023-04-18T10:03:57.600Z,17.52
2023-04-18T10:07:59.595Z,16.02
2023-04-18T10:12:02.555Z,16.58
2023-04-18T10:16:04.568Z,13.98
2023-04-18T10:20:10.703Z,11.73
2023-04-18T10:24:52.924Z,14.00
2023-04-18T10:28:58.667Z,14.98
2023-04-18T10:33:30.297Z,14.93
2023-04-18T10:37:33.892Z,14.00
2023-04-18T10:41:38.161Z,13.57
2023-04-18T10:45:39.759Z,18.02
2023-04-18T10:49:53.683Z,21.13
2023-04-18T10:53:57.775Z,14.32
2023-04-18T10:57:59.604Z,13.15
2023-04-18T11:02:25.685Z,11.88
2023-04-18T11:06:27.646Z,14.48
2023-04-18T11:10:29.839Z,14.02
2023-04-18T11:14:45.247Z,13.65
2023-04-18T11:18:46.681Z,15.35
2023-04-18T11:22:50.528Z,13.20
2023-04-18T11:26:55.938Z,14.65
2023-04-18T11:31:02.710Z,13.43
2023-04-18T11:35:04.443Z,10.85
2023-04-18T11:39:06.414Z,12.57
2023-04-18T11:43:07.870Z,15.05
2023-04-18T11:47:31.684Z,13.02
2023-04-18T11:51:39.730Z,15.65
2023-04-18T11:55:41.225Z,11.70
2023-04-18T11:59:48.835Z,16.60
2023-04-18T12:04:07.126Z,18.10
2023-04-18T12:08:11.722Z,13.43
2023-04-18T12:12:18.994Z,14.05
2023-04-18T12:16:20.497Z,18.00
2023-04-18T12:20:25.080Z,14.55
2023-04-18T12:24:28.883Z,12.50
2023-04-18T12:28:31.718Z,12.07
2023-04-18T12:32:33.167Z,13.20
2023-04-18T12:36:35.027Z,13.18
2023-04-18T12:40:39.116Z,9.95
2023-04-18T12:44:40.942Z,13.80
2023-04-18T12:48:42.470Z,17.67
2023-04-18T12:52:44.900Z,44.15
2023-04-18T12:56:46.907Z,15.82
2023-04-18T13:00:48.435Z,14.00
2023-04-18T13:04:51.400Z,19.13
2023-04-18T13:08:52.915Z,16.00
2023-04-18T13:12:54.392Z,14.43
2023-04-18T13:16:55.905Z,14.00
2023-04-18T13:20:57.363Z,17.42
2023-04-18T13:24:59.159Z,17.27
2023-04-18T13:29:00.563Z,20.38
2023-04-18T13:33:02.068Z,16.88
2023-04-18T13:37:03.637Z,15.73
2023-04-18T13:41:12.441Z,16.13
2023-04-18T13:49:16.189Z,14.15
2023-04-18T13:53:18.268Z,17.20
2023-04-18T13:57:19.825Z,13.20
2023-04-18T14:01:22.177Z,13.90
2023-04-18T14:05:23.728Z,14.30
2023-04-18T14:09:26.748Z,15.48
2023-04-18T14:13:28.179Z,14.85
2023-04-18T14:17:30.941Z,16.50
2023-04-18T14:21:32.354Z,12.48
2023-04-18T14:25:34.775Z,17.27
2023-04-18T14:29:36.210Z,15.63
2023-04-18T14:33:38.383Z,19.35
2023-04-18T14:37:39.860Z,13.10
2023-04-18T14:41:41.507Z,12.90
2023-04-18T14:45:42.957Z,12.80
2023-04-18T14:49:44.382Z,12.25
2023-04-18T14:53:46.198Z,13.55
2023-04-18T14:57:47.691Z,12.73
2023-04-18T15:01:49.195Z,13.90
2023-04-18T15:05:52.985Z,15.05
2023-04-18T15:09:54.449Z,19.65
2023-04-18T15:13:56.869Z,13.30
2023-04-18T15:17:58.401Z,11.32
2023-04-18T15:21:59.968Z,14.23
2023-04-18T15:26:01.516Z,12.60
2023-04-18T15:30:03.675Z,14.75
2023-04-18T15:34:06.257Z,11.25
2023-04-18T15:38:07.716Z,12.68
2023-04-18T15:42:09.173Z,12.32
2023-04-18T15:46:10.986Z,11.13
2023-04-18T15:50:12.514Z,13.88
2023-04-18T15:54:14.180Z,10.57
2023-04-18T15:58:15.817Z,8.15
2023-04-18T16:02:17.455Z,11.63
2023-04-18T16:06:22.179Z,7.03
2023-04-18T16:10:23.788Z,7.38
2023-04-18T16:14:25.319Z,9.10
2023-04-18T16:18:26.808Z,7.45
2023-04-18T16:22:28.226Z,7.90
2023-04-18T16:26:29.756Z,6.80
2023-04-18T16:30:31.264Z,6.82
2023-04-18T16:34:34.138Z,6.53
2023-04-18T16:38:35.739Z,6.22
2023-04-18T16:42:37.478Z,7.20
2023-04-18T16:46:38.999Z,6.25
2023-04-18T16:50:40.639Z,5.35
2023-04-18T16:54:42.077Z,4.88
2023-04-18T16:58:43.577Z,4.43
2023-04-18T17:02:45.242Z,6.65
2023-04-18T17:06:46.836Z,6.07
2023-04-18T17:10:51.646Z,6.20
2023-04-18T17:14:53.121Z,6.05
2023-04-18T17:18:55.975Z,5.90
2023-04-18T17:22:57.472Z,4.88
2023-04-18T17:27:00.168Z,8.20
2023-04-18T17:31:01.877Z,5.18
2023-04-18T17:35:06.164Z,7.20
2023-04-18T17:39:07.766Z,4.85
2023-04-18T17:43:11.866Z,6.55
2023-04-18T17:47:13.370Z,6.25
2023-04-18T17:51:16.360Z,6.43
2023-04-18T17:55:18.068Z,4.70
2023-04-18T17:59:19.557Z,6.63
2023-04-18T18:03:21.350Z,6.65
2023-04-18T18:07:22.927Z,8.57
2023-04-18T18:11:24.487Z,8.07
2023-04-18T18:15:26.244Z,5.88
2023-04-18T18:19:27.722Z,4.70
2023-04-18T18:23:29.187Z,8.02
2023-04-18T18:27:31.016Z,11.13
2023-04-18T18:31:32.489Z,8.68
2023-04-18T18:35:34.895Z,8.20
2023-04-18T18:39:36.661Z,6.68
2023-04-18T18:43:38.095Z,5.30
2023-04-18T18:47:40.193Z,11.52
2023-04-18T18:51:41.933Z,7.30
2023-04-18T18:55:44.186Z,6.93
2023-04-18T18:59:45.616Z,5.40
2023-04-18T19:03:48.202Z,7.35
2023-04-18T19:07:51.382Z,5.20
2023-04-18T19:11:53.148Z,10.32
2023-04-18T19:15:54.650Z,7.80
2023-04-18T19:19:57.911Z,5.32
2023-04-18T19:23:59.399Z,5.15
2023-04-18T19:28:00.894Z,6.07
2023-04-18T19:32:02.482Z,7.43
2023-04-18T19:36:04.280Z,6.45
2023-04-18T19:40:06.970Z,6.32
2023-04-18T19:44:08.619Z,8.10
2023-04-18T19:48:10.122Z,6.93
2023-04-18T19:52:11.640Z,6.68
2023-04-18T19:56:14.904Z,5.13
2023-04-18T20:00:16.782Z,8.55
2023-04-18T20:04:18.328Z,6.88
2023-04-18T20:08:20.344Z,9.98
2023-04-18T20:12:22.179Z,7.78
2023-04-18T20:16:23.865Z,6.95
2023-04-18T20:20:25.400Z,7.95
2023-04-18T20:24:27.927Z,8.10
2023-04-18T20:28:30.721Z,10.68
2023-04-18T20:32:33.468Z,9.52
2023-04-18T20:36:35.388Z,7.03
2023-04-18T20:40:39.728Z,8.15
2023-04-18T20:44:43.213Z,8.95
2023-04-18T20:48:44.716Z,10.40
2023-04-18T20:52:47.172Z,10.90
2023-04-18T20:56:48.567Z,11.23
2023-04-18T21:00:50.142Z,8.32
2023-04-18T21:04:52.166Z,10.40
2023-04-18T21:08:53.880Z,7.35
2023-04-18T21:12:55.342Z,9.73
2023-04-18T21:16:57.854Z,7.65
2023-04-18T21:20:59.366Z,9.63
2023-04-18T21:25:00.757Z,9.35
2023-04-18T21:29:06.516Z,8.88
2023-04-18T21:33:07.938Z,11.60
2023-04-18T21:37:09.408Z,11.93
2023-04-18T21:41:14.118Z,7.80
2023-04-18T21:45:15.509Z,11.63
2023-04-18T21:49:17.016Z,9.98
2023-04-18T21:53:18.589Z,8.90
2023-04-18T21:57:19.998Z,13.45
2023-04-18T22:01:21.455Z,13.45
2023-04-18T22:05:22.934Z,10.43
2023-04-18T22:09:24.392Z,10.13
2023-04-18T22:13:29.807Z,10.05
2023-04-18T22:17:31.338Z,11.50
2023-04-18T22:21:32.787Z,10.30
2023-04-18T22:25:34.809Z,11.93
2023-04-18T22:29:36.337Z,12.98
2023-04-18T22:33:37.805Z,10.95
2023-04-18T22:37:39.292Z,11.57
2023-04-18T22:41:40.772Z,10.57
2023-04-18T22:45:42.243Z,13.18
2023-04-18T22:49:44.296Z,11.35
2023-04-18T22:53:45.743Z,10.40
2023-04-18T22:57:47.165Z,10.40
2023-04-18T23:01:48.661Z,11.52
2023-04-18T23:05:50.201Z,8.27
2023-04-18T23:09:51.626Z,7.15
2023-04-18T23:13:53.020Z,8.63
2023-04-18T23:17:54.576Z,8.30
2023-04-18T23:21:56.023Z,8.95
2023-04-18T23:25:57.478Z,13.70
2023-04-18T23:29:58.939Z,6.25
2023-04-18T23:34:00.397Z,9.25
2023-04-18T23:38:01.819Z,8.80
2023-04-18T23:42:04.732Z,9.02
2023-04-18T23:46:06.212Z,7.55
2023-04-18T23:50:08.210Z,5.35
2023-04-18T23:54:09.759Z,6.97
2023-04-18T23:58:11.240Z,9.77
